createdAt,value
2023-01-13T00:02:22.194Z,2.53
2023-01-13T00:05:28.119Z,2.46
2023-01-13T00:08:30.313Z,2.46
2023-01-13T00:11:32.857Z,2.49
2023-01-13T00:14:36.025Z,2.46
2023-01-13T00:17:39.614Z,2.47
2023-01-13T00:20:43.611Z,2.48
2023-01-13T00:23:46.562Z,2.44
2023-01-13T00:26:49.641Z,2.38
2023-01-13T00:29:55.686Z,2.28
2023-01-13T00:33:00.708Z,2.17
2023-01-13T00:36:05.738Z,2.24
2023-01-13T00:39:08.985Z,2.22
2023-01-13T00:42:36.841Z,2.30
2023-01-13T00:45:38.850Z,2.34
2023-01-13T00:48:42.489Z,2.23
2023-01-13T00:51:45.813Z,2.31
2023-01-13T00:54:47.973Z,2.26
2023-01-13T00:57:50.026Z,2.35
2023-01-13T01:00:52.420Z,2.32
2023-01-13T01:03:56.287Z,2.35
2023-01-13T01:06:59.611Z,2.27
2023-01-13T01:10:02.884Z,2.26
2023-01-13T01:13:07.517Z,2.20
2023-01-13T01:16:15.403Z,2.16
2023-01-13T01:19:18.799Z,2.08
2023-01-13T01:22:21.026Z,2.05
2023-01-13T01:25:23.738Z,2.03
2023-01-13T01:28:25.982Z,2.03
2023-01-13T01:31:32.584Z,1.92
2023-01-13T01:34:34.607Z,2.00
2023-01-13T01:37:36.640Z,2.05
2023-01-13T01:40:41.597Z,2.02
2023-01-13T01:44:06.840Z,1.91
2023-01-13T01:47:18.113Z,1.78
2023-01-13T01:50:23.558Z,1.90
2023-01-13T01:53:29.838Z,1.83
2023-01-13T01:56:34.017Z,1.89
2023-01-13T01:59:37.529Z,1.91
2023-01-13T02:02:42.021Z,1.95
2023-01-13T02:05:44.299Z,1.89
2023-01-13T02:08:47.478Z,1.93
2023-01-13T02:12:26.844Z,2.04
2023-01-13T02:15:37.462Z,2.11
2023-01-13T02:19:09.497Z,2.10
2023-01-13T02:22:17.723Z,2.05
2023-01-13T02:25:59.857Z,2.18
2023-01-13T02:29:58.048Z,2.14
2023-01-13T02:33:07.160Z,2.19
2023-01-13T02:36:43.643Z,2.09
2023-01-13T02:39:51.665Z,2.04
2023-01-13T02:43:57.507Z,2.25
2023-01-13T02:47:07.324Z,2.16
2023-01-13T02:50:17.517Z,2.20
2023-01-13T02:53:30.704Z,2.00
2023-01-13T02:56:39.816Z,2.02
2023-01-13T02:59:43.007Z,2.13
2023-01-13T03:02:45.410Z,2.16
2023-01-13T03:05:53.848Z,2.04
2023-01-13T03:09:15.445Z,1.98
2023-01-13T03:12:40.378Z,2.13
2023-01-13T03:16:39.995Z,2.17
2023-01-13T03:19:53.087Z,2.11
2023-01-13T03:23:17.753Z,2.06
2023-01-13T03:26:25.734Z,2.07
2023-01-13T03:29:37.015Z,2.00
2023-01-13T03:32:43.971Z,2.13
2023-01-13T03:35:50.827Z,1.99
2023-01-13T03:39:05.362Z,2.09
2023-01-13T03:42:17.390Z,2.10
2023-01-13T03:45:20.513Z,2.08
2023-01-13T03:48:25.234Z,2.15
2023-01-13T03:51:33.785Z,2.17
2023-01-13T03:54:45.396Z,2.35
2023-01-13T03:57:59.058Z,2.28
2023-01-13T04:01:10.631Z,2.34
2023-01-13T04:04:30.947Z,2.53
2023-01-13T04:08:06.909Z,2.53
2023-01-13T04:11:19.802Z,2.49
2023-01-13T04:14:23.769Z,2.59
2023-01-13T04:17:26.125Z,2.51
2023-01-13T04:20:28.678Z,2.61
2023-01-13T04:23:30.956Z,2.91
2023-01-13T04:26:32.886Z,2.62
2023-01-13T04:29:35.465Z,2.62
2023-01-13T04:32:37.593Z,2.69
2023-01-13T04:35:39.994Z,2.50
2023-01-13T04:38:42.947Z,2.56
2023-01-13T04:41:57.783Z,2.72
2023-01-13T04:44:59.850Z,2.71
2023-01-13T04:48:04.682Z,2.91
2023-01-13T04:51:10.804Z,2.68
2023-01-13T04:54:12.965Z,2.66
2023-01-13T04:57:16.143Z,2.70
2023-01-13T05:00:21.058Z,2.38
2023-01-13T05:03:24.862Z,2.44
2023-01-13T05:06:26.916Z,2.48
2023-01-13T05:09:29.046Z,2.54
2023-01-13T05:12:50.759Z,2.59
2023-01-13T05:16:11.526Z,2.60
2023-01-13T05:19:13.804Z,2.65
2023-01-13T05:22:34.777Z,2.35
2023-01-13T05:25:41.862Z,2.48
2023-01-13T05:28:48.603Z,2.60
2023-01-13T05:31:52.081Z,2.58
2023-01-13T05:34:55.912Z,2.63
2023-01-13T05:37:58.334Z,2.50
2023-01-13T05:41:19.202Z,2.65
2023-01-13T05:44:21.461Z,2.60
2023-01-13T05:47:23.543Z,2.67
2023-01-13T05:50:25.813Z,2.53
2023-01-13T05:53:28.808Z,2.61
2023-01-13T05:56:31.308Z,2.61
2023-01-13T05:59:33.247Z,2.62
2023-01-13T06:02:36.239Z,2.61
2023-01-13T06:05:38.610Z,2.70
2023-01-13T06:08:41.584Z,2.55
2023-01-13T06:11:43.816Z,2.64
2023-01-13T06:14:46.071Z,2.65
2023-01-13T06:17:48.951Z,2.60
2023-01-13T06:20:53.828Z,2.64
2023-01-13T06:23:56.640Z,2.71
2023-01-13T06:26:58.874Z,2.38
2023-01-13T06:30:01.289Z,2.28
2023-01-13T06:33:09.942Z,2.39
2023-01-13T06:36:19.583Z,2.36
2023-01-13T06:39:27.875Z,2.34
2023-01-13T06:42:55.614Z,2.20
2023-01-13T06:45:58.265Z,2.13
2023-01-13T06:49:03.011Z,2.44
2023-01-13T06:52:08.062Z,2.50
2023-01-13T06:55:10.694Z,2.57
2023-01-13T06:58:13.570Z,2.61
2023-01-13T07:01:18.651Z,2.68
2023-01-13T07:04:21.255Z,2.77
2023-01-13T07:07:23.784Z,2.91
2023-01-13T07:10:46.204Z,2.74
2023-01-13T07:14:28.578Z,2.57
2023-01-13T07:17:52.686Z,2.75
2023-01-13T07:21:04.619Z,2.92
2023-01-13T07:24:11.586Z,2.81
2023-01-13T07:27:22.561Z,2.78
2023-01-13T07:30:45.172Z,2.89
2023-01-13T07:33:59.957Z,2.93
2023-01-13T07:37:05.218Z,3.08
2023-01-13T07:40:10.683Z,3.04
2023-01-13T07:43:38.794Z,3.15
2023-01-13T07:46:43.715Z,3.30
2023-01-13T07:58:14.819Z,3.23
2023-01-13T08:04:53.571Z,3.60
2023-01-13T08:08:18.171Z,3.20
2023-01-13T08:11:34.391Z,3.46
2023-01-13T08:14:37.017Z,3.44
2023-01-13T08:17:45.286Z,3.49
2023-01-13T08:21:06.282Z,3.44
2023-01-13T08:24:18.954Z,3.27
2023-01-13T08:27:28.797Z,3.28
2023-01-13T08:30:43.461Z,3.50
2023-01-13T08:33:47.259Z,3.40
2023-01-13T08:36:58.963Z,3.43
2023-01-13T08:40:11.691Z,3.34
2023-01-13T08:43:24.377Z,3.50
2023-01-13T08:46:38.410Z,3.49
2023-01-13T08:49:44.613Z,3.44
2023-01-13T08:52:56.720Z,3.42
2023-01-13T08:56:24.510Z,3.28
2023-01-13T08:59:34.210Z,3.33
2023-01-13T09:07:01.303Z,3.44
2023-01-13T09:15:11.174Z,3.10
2023-01-13T09:19:05.548Z,3.34
2023-01-13T09:31:09.166Z,2.94
2023-01-13T09:34:47.300Z,3.09
2023-01-13T09:38:01.629Z,3.30
2023-01-13T09:41:24.687Z,3.20
2023-01-13T09:44:45.526Z,3.25
2023-01-13T09:48:17.090Z,3.09
2023-01-13T09:55:55.212Z,3.11
2023-01-13T09:59:16.115Z,3.09
2023-01-13T10:02:41.194Z,3.20
2023-01-13T10:10:01.373Z,3.18
2023-01-13T10:13:30.889Z,3.51
2023-01-13T10:16:50.841Z,3.28
2023-01-13T10:20:26.359Z,3.14
2023-01-13T10:23:56.362Z,3.57
2023-01-13T10:27:13.442Z,3.25
2023-01-13T10:30:19.811Z,3.24
2023-01-13T10:33:30.919Z,3.28
2023-01-13T10:36:41.420Z,3.37
2023-01-13T10:39:48.251Z,3.57
2023-01-13T10:43:12.231Z,3.46
2023-01-13T10:46:31.484Z,3.43
2023-01-13T10:49:39.341Z,3.77
2023-01-13T10:53:18.033Z,3.29
2023-01-13T10:56:30.099Z,3.47
2023-01-13T11:19:05.135Z,3.83
2023-01-13T11:22:32.834Z,3.68
2023-01-13T11:26:24.294Z,3.69
2023-01-13T11:30:30.033Z,3.45
2023-01-13T11:34:43.220Z,3.61
2023-01-13T11:57:04.672Z,3.77
2023-01-13T12:00:53.598Z,3.78
2023-01-13T12:09:16.393Z,3.97
2023-01-13T12:13:23.530Z,3.85
2023-01-13T12:17:16.911Z,3.97
2023-01-13T12:26:00.857Z,3.71
2023-01-13T12:30:04.771Z,3.39
2023-01-13T12:38:34.500Z,3.72
2023-01-13T12:42:15.830Z,4.03
2023-01-13T12:45:53.247Z,4.22
2023-01-13T12:49:50.587Z,4.09
2023-01-13T12:53:39.599Z,4.28
2023-01-13T12:56:46.962Z,4.11
2023-01-13T13:00:25.994Z,4.27
2023-01-13T13:04:36.776Z,4.11
2023-01-13T13:07:52.867Z,4.18
2023-01-13T13:11:19.980Z,4.34
2023-01-13T13:14:46.922Z,4.30
2023-01-13T13:18:31.861Z,4.41
2023-01-13T13:22:07.865Z,4.49
2023-01-13T13:25:31.417Z,4.49
2023-01-13T13:29:00.251Z,4.45
2023-01-13T13:32:18.836Z,4.42
2023-01-13T13:35:41.310Z,4.44
2023-01-13T13:39:22.236Z,4.33
2023-01-13T13:42:59.921Z,4.42
2023-01-13T13:46:20.850Z,4.46
2023-01-13T13:49:54.659Z,4.57
2023-01-13T13:53:11.290Z,4.52
2023-01-13T13:56:24.462Z,4.32
2023-01-13T13:59:48.829Z,4.35
2023-01-13T14:02:54.233Z,4.50
2023-01-13T14:06:03.752Z,4.86
2023-01-13T14:09:17.370Z,4.67
2023-01-13T14:12:26.358Z,4.88
2023-01-13T14:15:38.999Z,5.07
2023-01-13T14:18:48.289Z,4.94
2023-01-13T14:21:50.712Z,4.94
2023-01-13T14:24:59.120Z,4.84
2023-01-13T14:28:30.559Z,4.93
2023-01-13T14:31:34.467Z,4.85
2023-01-13T14:34:38.298Z,4.80
2023-01-13T14:37:42.913Z,4.89
2023-01-13T14:40:47.521Z,4.95
2023-01-13T14:43:53.846Z,4.82
2023-01-13T14:47:03.447Z,4.93
2023-01-13T14:50:08.236Z,4.64
2023-01-13T14:53:32.439Z,4.85
2023-01-13T14:56:50.123Z,4.75
2023-01-13T14:59:59.470Z,4.78
2023-01-13T15:03:08.038Z,4.49
2023-01-13T15:06:28.654Z,4.61
2023-01-13T15:09:42.987Z,4.62
2023-01-13T15:12:50.107Z,4.64
2023-01-13T15:15:57.094Z,4.66
2023-01-13T15:19:28.639Z,4.67
2023-01-13T15:22:31.454Z,4.65
2023-01-13T15:25:39.612Z,4.29
2023-01-13T15:28:43.542Z,4.38
2023-01-13T15:31:50.985Z,4.60
2023-01-13T15:35:00.840Z,4.46
2023-01-13T15:38:06.756Z,4.45
2023-01-13T15:41:15.363Z,4.59
2023-01-13T15:44:37.649Z,4.63
2023-01-13T15:47:45.657Z,4.47
2023-01-13T15:50:51.212Z,4.37
2023-01-13T15:54:00.731Z,4.45
2023-01-13T15:57:04.170Z,4.68
2023-01-13T16:00:16.362Z,4.70
2023-01-13T16:03:18.695Z,4.70
2023-01-13T16:06:33.097Z,4.95
2023-01-13T16:09:35.837Z,4.87
2023-01-13T16:12:39.752Z,4.85
2023-01-13T16:15:48.365Z,4.66
2023-01-13T16:18:54.280Z,4.59
2023-01-13T16:21:59.910Z,4.65
2023-01-13T16:25:02.827Z,4.78
2023-01-13T16:28:05.187Z,4.92
2023-01-13T16:31:23.591Z,4.91
2023-01-13T16:34:25.849Z,4.98
2023-01-13T16:37:31.592Z,4.99
2023-01-13T16:40:36.964Z,4.92
2023-01-13T16:43:39.920Z,4.85
2023-01-13T16:46:47.928Z,4.95
2023-01-13T16:49:50.365Z,4.88
2023-01-13T16:52:52.850Z,4.85
2023-01-13T16:55:55.293Z,5.01
2023-01-13T16:59:02.806Z,5.07
2023-01-13T17:02:11.991Z,4.76
2023-01-13T17:05:15.193Z,4.86
2023-01-13T17:08:18.227Z,4.85
2023-01-13T17:11:24.514Z,4.85
2023-01-13T17:14:29.258Z,4.94
2023-01-13T17:17:31.756Z,4.94
2023-01-13T17:20:34.228Z,4.87
2023-01-13T17:23:36.700Z,4.77
2023-01-13T17:26:44.707Z,4.86
2023-01-13T17:29:50.322Z,5.02
2023-01-13T17:32:53.099Z,4.94
2023-01-13T17:35:55.242Z,5.16
2023-01-13T17:38:58.515Z,5.03
2023-01-13T17:42:00.677Z,5.23
2023-01-13T17:45:03.273Z,5.26
2023-01-13T17:48:06.513Z,5.11
2023-01-13T17:51:12.351Z,5.27
2023-01-13T17:54:15.970Z,5.36
2023-01-13T17:57:18.235Z,5.21
2023-01-13T18:00:21.570Z,5.38
2023-01-13T18:03:23.766Z,5.49
2023-01-13T18:06:26.487Z,5.27
2023-01-13T18:09:29.168Z,5.11
2023-01-13T18:12:32.178Z,5.36
2023-01-13T18:15:34.565Z,5.18
2023-01-13T18:18:38.405Z,5.25
2023-01-13T18:21:58.928Z,5.29
2023-01-13T18:25:21.840Z,5.39
2023-01-13T18:28:24.567Z,5.38
2023-01-13T18:31:28.382Z,5.39
2023-01-13T18:34:33.605Z,5.26
2023-01-13T18:37:43.290Z,5.34
2023-01-13T18:40:47.703Z,5.33
2023-01-13T18:43:51.903Z,5.51
2023-01-13T18:46:56.791Z,5.48
2023-01-13T18:49:59.801Z,5.36
2023-01-13T18:53:02.363Z,5.36
2023-01-13T18:56:14.312Z,5.46
2023-01-13T18:59:21.189Z,5.40
2023-01-13T19:02:27.229Z,5.32
2023-01-13T19:05:29.979Z,5.40
2023-01-13T19:08:33.792Z,5.31
2023-01-13T19:11:36.854Z,5.47
2023-01-13T19:14:42.380Z,5.39
2023-01-13T19:17:45.729Z,5.29
2023-01-13T19:20:51.065Z,5.46
2023-01-13T19:23:55.220Z,5.66
2023-01-13T19:26:57.518Z,5.54
2023-01-13T19:30:03.940Z,5.69
2023-01-13T19:33:06.538Z,5.73
2023-01-13T19:36:10.991Z,5.52
2023-01-13T19:39:14.218Z,5.60
2023-01-13T19:42:34.936Z,5.53
2023-01-13T19:45:37.266Z,5.49
2023-01-13T19:48:43.124Z,5.63
2023-01-13T19:51:45.452Z,5.83
2023-01-13T19:54:48.347Z,5.83
2023-01-13T19:57:50.814Z,5.78
2023-01-13T20:00:54.299Z,5.85
2023-01-13T20:04:02.988Z,5.80
2023-01-13T20:07:06.293Z,5.71
2023-01-13T20:10:09.166Z,5.41
2023-01-13T20:13:11.993Z,5.13
2023-01-13T20:16:14.253Z,5.17
2023-01-13T20:19:16.404Z,5.38
2023-01-13T20:22:18.754Z,5.61
2023-01-13T20:25:22.577Z,5.30
2023-01-13T20:28:24.913Z,5.31
2023-01-13T20:31:30.117Z,5.29
2023-01-13T20:34:32.225Z,5.19
2023-01-13T20:37:35.351Z,5.07
2023-01-13T20:40:37.954Z,5.08
2023-01-13T20:43:40.088Z,5.15
2023-01-13T20:46:43.780Z,5.18
2023-01-13T20:49:46.459Z,5.09
2023-01-13T20:52:48.575Z,5.07
2023-01-13T20:55:50.686Z,5.21
2023-01-13T20:58:53.135Z,5.27
2023-01-13T21:01:56.084Z,5.25
2023-01-13T21:05:02.259Z,5.15
2023-01-13T21:08:07.683Z,5.17
2023-01-13T21:11:12.308Z,5.14
2023-01-13T21:14:39.629Z,5.31
2023-01-13T21:18:00.409Z,5.25
2023-01-13T21:21:11.625Z,5.25
2023-01-13T21:24:14.176Z,4.94
2023-01-13T21:27:16.495Z,5.07
2023-01-13T21:30:19.395Z,4.90
2023-01-13T21:33:22.492Z,4.80
2023-01-13T21:36:28.142Z,4.85
2023-01-13T21:39:30.491Z,5.01
2023-01-13T21:42:51.463Z,5.02
2023-01-13T21:46:12.295Z,4.83
2023-01-13T21:49:17.780Z,4.74
2023-01-13T21:52:20.288Z,4.94
2023-01-13T21:55:25.467Z,4.78
2023-01-13T21:58:27.539Z,4.83
2023-01-13T22:01:29.875Z,4.85
2023-01-13T22:04:32.943Z,4.84
2023-01-13T22:07:41.189Z,4.78
2023-01-13T22:10:57.955Z,4.83
2023-01-13T22:14:07.048Z,4.82
2023-01-13T22:17:09.388Z,4.91
2023-01-13T22:20:13.803Z,5.04
2023-01-13T22:23:17.125Z,5.20
2023-01-13T22:26:19.243Z,5.26
2023-01-13T22:29:21.862Z,5.33
2023-01-13T22:32:24.069Z,5.11
2023-01-13T22:35:26.767Z,5.16
2023-01-13T22:38:30.002Z,5.02
2023-01-13T22:41:32.643Z,5.19
2023-01-13T22:44:35.028Z,5.40
2023-01-13T22:47:37.162Z,5.10
2023-01-13T22:50:39.722Z,5.19
2023-01-13T22:53:43.026Z,5.38
2023-01-13T22:56:45.082Z,5.49
2023-01-13T22:59:47.753Z,5.60
2023-01-13T23:02:52.062Z,5.70
2023-01-13T23:05:58.164Z,5.69
2023-01-13T23:09:03.789Z,5.40
2023-01-13T23:12:10.995Z,5.26
2023-01-13T23:15:12.990Z,4.98
2023-01-13T23:18:14.941Z,4.97
2023-01-13T23:21:25.380Z,4.98
2023-01-13T23:24:29.306Z,4.92
2023-01-13T23:27:31.495Z,4.96
2023-01-13T23:30:34.509Z,4.96
2023-01-13T23:33:41.523Z,4.86
2023-01-13T23:36:44.643Z,5.00
2023-01-13T23:39:46.763Z,5.17
2023-01-13T23:42:49.328Z,5.23
2023-01-13T23:45:51.510Z,5.26
2023-01-13T23:48:55.376Z,5.19
2023-01-13T23:51:57.463Z,5.12
2023-01-13T23:54:59.525Z,5.10
2023-01-13T23:58:04.348Z,4.94
